Kansas City, MO

3:54 AM CST on December 21, 2014 (GMT -0600)
Waldo General Atomics & Atmospherics | Change Station
CLOSE
Current Station
Personal Weather Station
Location: Kansas City, MO
Elevation: 997 ft
Nearby Weather Stations

Elev 997 ft 38.99 °N, 94.59 °W | Updated 2 seconds ago

Overcast
Overcast
36.4 °F
Feels Like 33 °F
N
4.5
Wind Variable Wind from South
Gusts 5.1 mph

Today
High -- | Low -- °F
--% Chance of Precip.
Yesterday
High -- | Low -- °F
Precip. -- in
7:33 AM 4:59 PM
Waning Crescent, 1% visible
Pressure 30.12 in
Visibility 8.0 miles
Clouds Mostly Cloudy 1700 ft
Windchill 33 °F
Dew Point 33 °F
Humidity 88%
Rainfall 0.00 in
Snow Depth Not available.
UV 0 out of 12
Pollen .10 out of 12
Air Quality Not available.
Flu Activity Not available.
METAR KLXT 210853Z AUTO 21006KT 8SM BKN017 02/01 A3010 RMK AO2 SLP199 T00220006 55009 TSNO

More Conditions Fewer Conditions

Pressure 30.12 in
Visibility 8.0 miles
Clouds Mostly Cloudy 1700 ft
Windchill 33 °F
Dew Point 33 °F
Humidity 88%
Rainfall 0.00 in
Snow Depth Not available.
UV 0 out of 12
Pollen .10 out of 12
Air Quality Not available.
Flu Activity Not available.
METAR KLXT 210853Z AUTO 21006KT 8SM BKN017 02/01 A3010 RMK AO2 SLP199 T00220006 55009 TSNO

More Conditions Fewer Conditions

10-Day Weather Forecast

Almanac

Astronomy

Dec. 21, 2014 Rise Set
Actual Time
Civil Twilight
Nautical Twilight
Astronomical Twilight
Moon
Length of Visible Light
Length of Day
Tomorrow will be .
, % of the Moon is Illuminated

Today's Extremes

State Highs State Lows

Community

WunderPhotos

Upload Photos

1,779,364 photos uploaded!

WunderBlogs® & News

Nearby

Air Quality

  Air Quality AQ Index Pollutant
Not available.

Snow Depth

Station Depth Elevation

Earthquake Activity

City Distance Mag. Time & Date
Minimum magnitude displayed is 2.5.

Coastal Water Temperatures

Place Temperature

Nearby Weather Stations